createdAt,value
2022-12-14T00:01:58.319Z,94332.84
2022-12-14T00:06:59.822Z,94323.59
2022-12-14T00:12:01.284Z,94331.06
2022-12-14T00:17:02.777Z,94311.31
2022-12-14T00:22:04.203Z,94312.78
2022-12-14T00:27:05.669Z,94298.22
2022-12-14T00:32:07.146Z,94295.94
2022-12-14T00:37:08.636Z,94305.44
2022-12-14T00:42:10.267Z,94299.25
2022-12-14T00:47:11.697Z,94292.44
2022-12-14T00:52:13.197Z,94292.22
2022-12-14T00:57:14.718Z,94291.59
2022-12-14T01:02:16.323Z,94292.44
2022-12-14T01:07:17.939Z,94305.16
2022-12-14T01:12:19.459Z,94284.75
2022-12-14T01:17:21.068Z,94293.81
2022-12-14T01:22:22.565Z,94297.41
2022-12-14T01:27:24.078Z,94299.06
2022-12-14T01:32:25.567Z,94305.88
2022-12-14T01:37:27.066Z,94296.06
2022-12-14T01:42:28.496Z,94296.81
2022-12-14T01:47:41.555Z,94290.91
2022-12-14T01:52:47.116Z,94277.34
2022-12-14T01:57:51.344Z,94282.22
2022-12-14T02:03:09.039Z,94284.41
2022-12-14T02:08:11.694Z,94279.22
2022-12-14T02:13:28.016Z,94266.31
2022-12-14T02:18:31.817Z,94284.50
2022-12-14T02:23:51.953Z,94273.84
2022-12-14T02:29:27.135Z,94266.94
2022-12-14T02:34:31.469Z,94266.81
2022-12-14T02:39:40.175Z,94246.53
2022-12-14T02:44:59.748Z,94248.22
2022-12-14T02:50:22.951Z,94235.38
2022-12-14T02:55:50.083Z,94223.38
2022-12-14T03:00:54.383Z,94222.13
2022-12-14T03:06:05.419Z,94223.38
2022-12-14T03:11:07.549Z,94214.91
2022-12-14T03:16:14.553Z,94215.06
2022-12-14T03:21:21.545Z,94199.78
2022-12-14T03:26:29.119Z,94192.34
2022-12-14T03:31:33.798Z,94183.63
2022-12-14T03:36:43.776Z,94163.75
2022-12-14T03:42:11.223Z,94192.34
2022-12-14T03:47:21.719Z,94190.25
2022-12-14T03:52:38.386Z,94181.78
2022-12-14T03:58:02.076Z,94159.50
2022-12-14T04:03:23.603Z,94154.66
2022-12-14T04:08:33.801Z,94140.16
2022-12-14T04:13:40.347Z,94160.78
2022-12-14T04:18:45.723Z,94161.28
2022-12-14T04:23:57.334Z,94151.78
2022-12-14T04:29:15.648Z,94145.88
2022-12-14T04:34:20.665Z,94132.72
2022-12-14T04:39:29.204Z,94126.19
2022-12-14T04:44:42.569Z,94126.19
2022-12-14T04:49:49.823Z,94126.91
2022-12-14T04:55:03.340Z,94120.19
2022-12-14T05:00:05.759Z,94106.63
2022-12-14T05:05:18.517Z,94105.59
2022-12-14T05:10:32.071Z,94109.72
2022-12-14T05:15:44.330Z,94115.41
2022-12-14T05:20:47.166Z,94097.38
2022-12-14T05:25:49.213Z,94095.25
2022-12-14T05:30:51.656Z,94087.34
2022-12-14T05:35:54.923Z,94077.94
2022-12-14T05:40:56.374Z,94077.22
2022-12-14T05:45:59.332Z,94075.50
2022-12-14T05:51:08.903Z,94062.47
2022-12-14T05:56:10.939Z,94056.13
2022-12-14T06:01:18.541Z,94052.50
2022-12-14T06:06:20.745Z,94035.72
2022-12-14T06:11:23.261Z,94035.28
2022-12-14T06:16:25.882Z,94024.00
2022-12-14T06:21:33.384Z,94023.06
2022-12-14T06:26:36.039Z,94024.47
2022-12-14T06:31:37.492Z,94026.50
2022-12-14T06:36:41.267Z,94024.44
2022-12-14T06:41:43.373Z,94017.78
2022-12-14T06:46:45.036Z,93989.31
2022-12-14T06:51:46.522Z,94006.81
2022-12-14T06:56:48.276Z,93985.28
2022-12-14T07:01:50.327Z,93986.47
2022-12-14T07:06:52.079Z,93993.44
2022-12-14T07:11:53.490Z,93981.44
2022-12-14T07:16:54.968Z,93985.44
2022-12-14T07:21:56.392Z,93989.81
2022-12-14T07:26:58.097Z,93982.75
2022-12-14T07:31:59.608Z,93965.09
2022-12-14T07:37:01.021Z,93975.81
2022-12-14T07:42:02.515Z,93977.38
2022-12-14T07:47:04.236Z,93983.41
2022-12-14T07:52:05.661Z,93981.72
2022-12-14T07:57:07.296Z,93969.00
2022-12-14T08:02:11.393Z,93958.75
2022-12-14T08:07:12.902Z,93940.16
2022-12-14T08:12:14.378Z,93947.59
2022-12-14T08:17:15.812Z,93955.25
2022-12-14T08:22:17.267Z,93955.47
2022-12-14T08:27:18.738Z,93954.66
2022-12-14T08:32:20.333Z,93960.88
2022-12-14T08:37:21.747Z,93957.00
2022-12-14T08:42:23.203Z,93959.72
2022-12-14T08:47:24.674Z,93961.50
2022-12-14T08:52:26.160Z,93959.72
2022-12-14T08:57:27.835Z,93974.47
2022-12-14T09:02:29.388Z,93980.97
2022-12-14T09:07:31.873Z,93974.59
2022-12-14T09:12:33.329Z,93960.38
2022-12-14T09:17:34.850Z,93958.84
2022-12-14T09:22:36.307Z,93994.00
2022-12-14T09:27:37.742Z,93984.19
2022-12-14T09:32:39.261Z,93951.06
2022-12-14T09:37:40.748Z,93949.66
2022-12-14T09:43:13.008Z,93972.41
2022-12-14T09:48:19.734Z,93971.38
2022-12-14T09:53:22.122Z,93991.16
2022-12-14T09:58:31.111Z,93959.09
2022-12-14T10:03:41.898Z,93943.72
2022-12-14T10:08:56.954Z,93924.63
2022-12-14T10:14:20.896Z,93957.66
2022-12-14T10:19:45.775Z,93964.50
2022-12-14T10:24:54.628Z,93956.50
2022-12-14T10:30:08.713Z,93939.13
2022-12-14T10:35:19.608Z,93930.94
2022-12-14T10:40:34.063Z,93921.97
2022-12-14T10:45:51.345Z,93925.50
2022-12-14T10:51:02.978Z,93921.09
2022-12-14T10:56:11.301Z,93922.19
2022-12-14T11:01:14.067Z,93899.91
2022-12-14T11:06:19.151Z,93876.91
2022-12-14T11:11:24.746Z,93888.63
2022-12-14T11:16:38.779Z,93872.75
2022-12-14T11:21:41.747Z,93854.22
2022-12-14T11:26:43.920Z,93867.06
2022-12-14T11:31:48.335Z,93860.84
2022-12-14T11:36:50.084Z,93854.19
2022-12-14T11:41:57.259Z,93861.38
2022-12-14T11:46:58.647Z,93864.38
2022-12-14T11:52:05.788Z,93854.34
2022-12-14T11:57:13.150Z,93853.25
2022-12-14T12:02:32.438Z,93847.97
2022-12-14T12:07:36.693Z,93847.06
2022-12-14T12:12:52.246Z,93865.25
2022-12-14T12:18:01.160Z,93868.75
2022-12-14T12:23:13.252Z,93869.34
2022-12-14T12:28:21.904Z,93882.53
2022-12-14T12:33:28.732Z,93875.38
2022-12-14T12:38:36.293Z,93883.88
2022-12-14T12:43:49.891Z,93882.34
2022-12-14T12:49:18.352Z,93883.59
2022-12-14T12:54:37.820Z,93896.16
2022-12-14T12:59:49.864Z,93886.88
2022-12-14T13:04:53.205Z,93893.19
2022-12-14T13:10:05.762Z,93902.78
2022-12-14T13:15:20.859Z,93898.66
2022-12-14T13:20:28.820Z,93896.72
2022-12-14T13:25:48.666Z,93891.22
2022-12-14T13:31:08.712Z,93885.84
2022-12-14T13:36:31.014Z,93900.75
2022-12-14T13:41:59.560Z,93913.63
2022-12-14T13:47:03.303Z,93918.41
2022-12-14T13:52:05.590Z,93916.38
2022-12-14T13:57:20.501Z,93928.25
2022-12-14T14:02:50.652Z,93932.91
2022-12-14T14:07:57.943Z,93946.75
2022-12-14T14:13:00.959Z,93957.44
2022-12-14T14:18:25.795Z,93947.00
2022-12-14T14:23:32.295Z,93969.34
2022-12-14T14:28:34.224Z,93965.28
2022-12-14T14:33:45.236Z,93978.28
2022-12-14T14:38:48.559Z,93984.56
2022-12-14T14:43:59.934Z,93992.53
2022-12-14T14:49:01.649Z,93998.84
2022-12-14T14:55:03.586Z,93988.13
2022-12-14T14:59:50.884Z,93995.53
2022-12-14T15:04:56.906Z,93994.84
2022-12-14T15:10:20.676Z,94007.91
2022-12-14T15:15:36.992Z,93999.03
2022-12-14T15:20:40.468Z,94005.03
2022-12-14T15:25:43.307Z,94004.34
2022-12-14T15:30:48.067Z,94014.06
2022-12-14T15:35:49.631Z,94016.03
2022-12-14T15:40:59.222Z,94023.88
2022-12-14T15:46:04.546Z,94039.84
2022-12-14T15:51:11.045Z,94037.59
2022-12-14T15:56:42.598Z,94029.97
2022-12-14T16:01:53.217Z,94037.56
2022-12-14T16:07:07.816Z,94034.31
2022-12-14T16:12:24.777Z,94043.34
2022-12-14T16:17:36.317Z,94030.19
2022-12-14T16:22:40.235Z,94042.53
2022-12-14T16:27:44.594Z,94049.66
2022-12-14T16:32:49.775Z,94047.47
2022-12-14T16:37:54.420Z,94050.06
2022-12-14T16:42:55.853Z,94049.66
2022-12-14T16:48:06.705Z,94058.56
2022-12-14T16:53:14.460Z,94055.53
2022-12-14T16:58:17.693Z,94063.78
2022-12-14T17:03:22.146Z,94065.03
2022-12-14T17:08:23.816Z,94069.94
2022-12-14T17:13:25.848Z,94072.66
2022-12-14T17:18:36.777Z,94072.25
2022-12-14T17:23:41.316Z,94074.44
2022-12-14T17:28:42.783Z,94091.38
2022-12-14T17:33:44.384Z,94085.59
2022-12-14T17:38:45.940Z,94089.84
2022-12-14T17:43:51.163Z,94087.50
2022-12-14T17:48:58.439Z,94090.53
2022-12-14T17:54:03.096Z,94086.41
2022-12-14T17:59:04.582Z,94094.91
2022-12-14T18:04:06.301Z,94081.03
2022-12-14T18:09:08.699Z,94081.97
2022-12-14T18:14:13.982Z,94080.88
2022-12-14T18:19:15.531Z,94087.50
2022-12-14T18:24:20.282Z,94088.44
2022-12-14T18:29:25.762Z,94092.44
2022-12-14T18:34:27.269Z,94097.41
2022-12-14T18:39:28.696Z,94098.09
2022-12-14T18:44:30.169Z,94099.19
2022-12-14T18:49:31.630Z,94096.56
2022-12-14T18:54:33.095Z,94097.94
2022-12-14T18:59:39.077Z,94090.69
2022-12-14T19:04:47.873Z,94090.16
2022-12-14T19:09:49.311Z,94094.97
2022-12-14T19:14:50.837Z,94085.91
2022-12-14T19:19:52.379Z,94094.97
2022-12-14T19:24:53.859Z,94098.28
2022-12-14T19:29:55.370Z,94098.84
2022-12-14T19:34:56.857Z,94121.50
2022-12-14T19:39:58.296Z,94120.56
2022-12-14T19:44:59.766Z,94124.81
2022-12-14T19:50:02.572Z,94122.50
2022-12-14T19:55:04.335Z,94131.00
2022-12-14T20:00:09.852Z,94125.66
2022-12-14T20:05:11.320Z,94124.81
2022-12-14T20:10:12.880Z,94123.72
2022-12-14T20:15:14.363Z,94127.44
2022-12-14T20:20:15.792Z,94132.66
2022-12-14T20:25:17.403Z,94131.28
2022-12-14T20:30:18.864Z,94140.19
2022-12-14T20:35:20.332Z,94130.31
2022-12-14T20:40:21.792Z,94141.84
2022-12-14T20:45:23.281Z,94146.91
2022-12-14T20:50:24.692Z,94148.56
2022-12-14T20:55:26.128Z,94142.94
2022-12-14T21:00:28.235Z,94139.78
2022-12-14T21:05:29.861Z,94143.50
2022-12-14T21:10:31.325Z,94151.16
2022-12-14T21:15:32.782Z,94155.69
2022-12-14T21:20:34.270Z,94156.91
2022-12-14T21:25:35.684Z,94158.16
2022-12-14T21:30:37.161Z,94174.06
2022-12-14T21:35:40.464Z,94168.56
2022-12-14T21:40:41.891Z,94179.25
2022-12-14T21:45:45.708Z,94189.94
2022-12-14T21:50:47.591Z,94192.16
2022-12-14T21:55:50.261Z,94173.50
2022-12-14T22:00:51.793Z,94171.72
2022-12-14T22:05:53.326Z,94185.47
2022-12-14T22:10:54.802Z,94169.09
2022-12-14T22:15:56.382Z,94171.84
2022-12-14T22:21:05.445Z,94174.88
2022-12-14T22:26:07.192Z,94169.38
2022-12-14T22:31:08.678Z,94175.13
2022-12-14T22:36:10.124Z,94168.66
2022-12-14T22:41:14.469Z,94169.75
2022-12-14T22:46:15.978Z,94169.09
2022-12-14T22:51:18.646Z,94180.34
2022-12-14T22:56:23.019Z,94186.53
2022-12-14T23:01:24.931Z,94181.31
2022-12-14T23:06:27.185Z,94186.25
2022-12-14T23:11:28.624Z,94186.09
2022-12-14T23:16:30.218Z,94186.66
2022-12-14T23:21:31.771Z,94196.88
2022-12-14T23:26:33.288Z,94208.66
2022-12-14T23:31:34.765Z,94196.31
2022-12-14T23:36:36.199Z,94199.31
2022-12-14T23:41:37.668Z,94203.84
2022-12-14T23:46:39.152Z,94201.63
2022-12-14T23:51:40.676Z,94207.31
2022-12-14T23:56:42.089Z,94214.97
